createdAt,value
2019-04-10T00:02:13.552Z,70.96
2019-04-10T00:04:45.290Z,70.99
2019-04-10T00:07:18.364Z,70.45
2019-04-10T00:09:48.358Z,70.34
2019-04-10T00:12:19.034Z,70.68
2019-04-10T00:14:50.459Z,70.91
2019-04-10T00:17:21.162Z,70.90
2019-04-10T00:19:52.106Z,70.60
2019-04-10T00:22:22.788Z,70.86
2019-04-10T00:24:54.574Z,70.54
2019-04-10T00:27:26.256Z,70.46
2019-04-10T00:29:57.000Z,70.67
2019-04-10T00:32:27.969Z,70.87
2019-04-10T00:34:58.638Z,70.89
2019-04-10T00:37:31.151Z,70.62
2019-04-10T00:40:01.727Z,70.48
2019-04-10T00:42:32.841Z,70.69
2019-04-10T00:45:04.437Z,70.72
2019-04-10T00:47:35.388Z,70.17
2019-04-10T00:50:08.480Z,70.74
2019-04-10T00:52:39.283Z,70.67
2019-04-10T00:55:11.236Z,70.37
2019-04-10T00:57:42.476Z,70.39
2019-04-10T01:00:15.442Z,70.46
2019-04-10T01:02:47.097Z,70.47
2019-04-10T01:05:17.827Z,70.07
2019-04-10T01:07:48.675Z,69.72
2019-04-10T01:10:20.451Z,69.88
2019-04-10T01:12:52.267Z,69.81
2019-04-10T01:15:23.083Z,69.38
2019-04-10T01:17:54.770Z,69.56
2019-04-10T01:20:25.828Z,69.49
2019-04-10T01:22:57.315Z,70.08
2019-04-10T01:25:28.387Z,70.03
2019-04-10T01:27:59.101Z,70.75
2019-04-10T01:30:30.558Z,71.13
2019-04-10T01:33:01.305Z,71.04
2019-04-10T01:35:32.154Z,71.09
2019-04-10T01:38:05.893Z,71.37
2019-04-10T01:40:35.739Z,71.45
2019-04-10T01:43:12.826Z,71.33
2019-04-10T01:45:40.042Z,71.43
2019-04-10T01:48:10.743Z,71.15
2019-04-10T01:50:42.314Z,70.59
2019-04-10T01:53:13.398Z,70.81
2019-04-10T01:55:44.164Z,71.17
2019-04-10T01:58:17.010Z,70.96
2019-04-10T02:00:50.672Z,70.85
2019-04-10T02:03:22.211Z,71.50
2019-04-10T02:05:54.604Z,70.96
2019-04-10T02:08:25.749Z,71.00
2019-04-10T02:10:56.633Z,70.73
2019-04-10T02:13:27.669Z,71.04
2019-04-10T02:15:58.607Z,71.17
2019-04-10T02:18:29.658Z,71.34
2019-04-10T02:21:01.157Z,71.79
2019-04-10T02:23:32.295Z,72.35
2019-04-10T02:26:03.252Z,72.40
2019-04-10T02:28:36.017Z,72.74
2019-04-10T02:31:07.200Z,72.73
2019-04-10T02:33:38.772Z,72.98
2019-04-10T02:36:10.859Z,72.69
2019-04-10T02:38:54.524Z,73.01
2019-04-10T02:41:14.320Z,73.11
2019-04-10T02:43:45.393Z,72.11
2019-04-10T02:46:16.279Z,72.50
2019-04-10T02:48:47.650Z,72.92
2019-04-10T02:51:19.995Z,72.82
2019-04-10T02:53:53.071Z,72.36
2019-04-10T02:56:25.255Z,72.43
2019-04-10T02:58:56.634Z,72.19
2019-04-10T03:01:27.600Z,72.21
2019-04-10T03:03:59.236Z,72.06
2019-04-10T03:06:31.182Z,72.04
2019-04-10T03:09:14.702Z,72.18
2019-04-10T03:11:35.366Z,72.07
2019-04-10T03:14:07.975Z,72.03
2019-04-10T03:16:39.576Z,72.06
2019-04-10T03:19:11.643Z,72.18
2019-04-10T03:21:43.030Z,72.06
2019-04-10T03:24:13.955Z,72.01
2019-04-10T03:26:45.754Z,71.71
2019-04-10T03:29:16.481Z,71.69
2019-04-10T03:31:48.185Z,71.28
2019-04-10T03:34:28.984Z,72.02
2019-04-10T03:37:01.770Z,72.14
2019-04-10T03:39:35.816Z,71.90
2019-04-10T03:42:06.534Z,72.11
2019-04-10T03:44:38.884Z,72.47
2019-04-10T03:47:09.554Z,72.21
2019-04-10T03:49:40.224Z,72.22
2019-04-10T03:52:11.462Z,72.81
2019-04-10T03:54:42.183Z,72.84
2019-04-10T03:57:12.906Z,73.25
2019-04-10T03:59:43.666Z,72.99
2019-04-10T04:02:15.605Z,72.93
2019-04-10T04:04:47.969Z,72.87
2019-04-10T04:07:19.657Z,76.86
2019-04-10T04:09:50.325Z,80.90
2019-04-10T04:12:21.007Z,77.63
2019-04-10T04:14:52.729Z,76.44
2019-04-10T04:17:24.218Z,73.61
2019-04-10T04:19:54.919Z,72.35
2019-04-10T04:22:25.919Z,73.32
2019-04-10T04:24:56.628Z,73.46
2019-04-10T04:27:27.310Z,74.91
2019-04-10T04:29:59.548Z,74.16
2019-04-10T04:32:31.518Z,74.36
2019-04-10T04:35:02.463Z,73.94
2019-04-10T04:37:33.584Z,75.60
2019-04-10T04:40:05.612Z,74.60
2019-04-10T04:42:36.589Z,74.56
2019-04-10T04:45:08.696Z,74.40
2019-04-10T04:47:39.847Z,74.05
2019-04-10T04:50:10.578Z,73.72
2019-04-10T04:52:41.268Z,73.59
2019-04-10T04:55:12.282Z,73.88
2019-04-10T04:57:43.320Z,73.36
2019-04-10T05:00:15.241Z,72.81
2019-04-10T05:02:47.017Z,73.17
2019-04-10T05:05:18.495Z,72.82
2019-04-10T05:07:58.496Z,72.05
2019-04-10T05:10:21.623Z,71.68
2019-04-10T05:12:53.620Z,71.97
2019-04-10T05:15:24.874Z,72.25
2019-04-10T05:17:55.719Z,71.18
2019-04-10T05:20:38.731Z,70.34
2019-04-10T05:22:59.928Z,70.09
2019-04-10T05:25:31.595Z,70.09
2019-04-10T05:28:02.299Z,70.18
2019-04-10T05:30:33.504Z,69.57
2019-04-10T05:33:04.262Z,69.25
2019-04-10T05:35:35.095Z,69.27
2019-04-10T05:38:05.761Z,68.77
2019-04-10T05:40:36.732Z,68.36
2019-04-10T05:43:07.633Z,68.27
2019-04-10T05:45:38.345Z,67.71
2019-04-10T05:48:09.045Z,66.21
2019-04-10T05:50:39.885Z,65.10
2019-04-10T05:53:10.618Z,64.28
2019-04-10T05:55:41.426Z,62.50
2019-04-10T05:58:13.380Z,59.90
2019-04-10T06:00:45.046Z,58.74
2019-04-10T06:03:16.515Z,59.15
2019-04-10T06:05:47.297Z,59.46
2019-04-10T06:08:18.183Z,58.17
2019-04-10T06:10:49.860Z,57.64
2019-04-10T06:13:20.607Z,57.51
2019-04-10T06:15:51.292Z,57.82
2019-04-10T06:18:22.845Z,57.10
2019-04-10T06:20:54.694Z,57.05
2019-04-10T06:23:25.677Z,56.02
2019-04-10T06:25:56.618Z,56.60
2019-04-10T06:28:27.961Z,56.98
2019-04-10T06:31:00.660Z,58.58
2019-04-10T06:33:31.822Z,59.00
2019-04-10T06:36:02.907Z,59.21
2019-04-10T06:38:34.997Z,58.91
2019-04-10T06:41:06.230Z,58.42
2019-04-10T06:43:37.233Z,57.69
2019-04-10T06:46:08.440Z,58.21
2019-04-10T06:48:40.315Z,58.52
2019-04-10T06:51:12.295Z,57.96
2019-04-10T06:53:43.367Z,58.51
2019-04-10T06:56:14.986Z,58.03
2019-04-10T06:58:45.701Z,56.58
2019-04-10T07:01:16.728Z,56.04
2019-04-10T07:03:57.547Z,56.87
2019-04-10T07:06:22.284Z,55.70
2019-04-10T07:08:53.306Z,54.93
2019-04-10T07:11:29.192Z,55.12
2019-04-10T07:13:57.375Z,55.22
2019-04-10T07:16:31.517Z,51.88
2019-04-10T07:19:05.598Z,51.31
2019-04-10T07:21:36.090Z,52.21
2019-04-10T07:24:09.260Z,50.36
2019-04-10T07:26:43.148Z,49.78
2019-04-10T07:29:15.592Z,50.01
2019-04-10T07:31:44.675Z,49.50
2019-04-10T07:34:19.693Z,49.82
2019-04-10T07:36:48.351Z,50.46
2019-04-10T07:39:19.010Z,50.39
2019-04-10T07:41:49.692Z,50.20
2019-04-10T07:44:20.362Z,50.26
2019-04-10T07:46:51.298Z,50.54
2019-04-10T07:49:22.215Z,49.96
2019-04-10T07:51:54.349Z,49.66
2019-04-10T07:54:25.033Z,49.03
2019-04-10T07:56:55.771Z,49.08
2019-04-10T07:59:27.462Z,49.46
2019-04-10T08:01:58.454Z,48.55
2019-04-10T08:04:29.196Z,48.87
2019-04-10T08:07:01.553Z,48.17
2019-04-10T08:09:33.396Z,47.83
2019-04-10T08:12:05.121Z,48.12
2019-04-10T08:14:37.871Z,47.82
2019-04-10T08:17:08.649Z,47.90
2019-04-10T08:19:41.603Z,47.78
2019-04-10T08:22:13.132Z,47.42
2019-04-10T08:24:47.172Z,46.69
2019-04-10T08:27:19.317Z,45.99
2019-04-10T08:29:50.612Z,45.39
2019-04-10T08:32:21.891Z,44.32
2019-04-10T08:34:52.696Z,42.23
2019-04-10T08:37:24.186Z,42.21
2019-04-10T08:39:55.047Z,41.62
2019-04-10T08:42:26.595Z,40.25
2019-04-10T08:44:57.559Z,39.99
2019-04-10T08:47:28.242Z,39.93
2019-04-10T08:49:59.272Z,39.21
2019-04-10T08:52:30.440Z,39.96
2019-04-10T08:55:01.882Z,38.37
2019-04-10T08:57:34.081Z,38.12
2019-04-10T09:00:08.266Z,36.46
2019-04-10T09:02:39.035Z,35.15
2019-04-10T09:05:11.244Z,34.91
2019-04-10T09:07:42.308Z,35.37
2019-04-10T09:10:14.348Z,35.62
2019-04-10T09:12:45.146Z,34.00
2019-04-10T09:15:16.213Z,33.36
2019-04-10T09:17:47.255Z,33.03
2019-04-10T09:20:18.497Z,32.64
2019-04-10T09:23:10.765Z,32.48
2019-04-10T09:25:22.894Z,33.67
2019-04-10T09:27:54.029Z,34.68
2019-04-10T09:30:26.917Z,37.44
2019-04-10T09:32:57.645Z,37.64
2019-04-10T09:35:28.749Z,37.25
2019-04-10T09:37:59.530Z,37.39
2019-04-10T09:40:30.486Z,36.96
2019-04-10T09:43:01.192Z,36.67
2019-04-10T09:45:32.325Z,35.98
2019-04-10T09:48:04.191Z,34.54
2019-04-10T09:50:35.426Z,35.04
2019-04-10T09:53:06.405Z,36.11
2019-04-10T09:55:38.294Z,35.74
2019-04-10T09:58:11.741Z,35.38
2019-04-10T10:00:43.761Z,36.94
2019-04-10T10:03:15.261Z,37.45
2019-04-10T10:05:46.668Z,35.67
2019-04-10T10:08:18.372Z,36.03
2019-04-10T10:10:49.212Z,36.08
2019-04-10T10:13:21.393Z,35.46
2019-04-10T10:15:52.242Z,35.16
2019-04-10T10:18:23.484Z,34.26
2019-04-10T10:20:54.312Z,36.33
2019-04-10T10:23:25.632Z,37.63
2019-04-10T10:25:56.720Z,35.43
2019-04-10T10:28:27.503Z,35.47
2019-04-10T10:30:58.203Z,35.90
2019-04-10T10:33:29.889Z,34.61
2019-04-10T10:36:01.008Z,35.78
2019-04-10T10:38:32.026Z,36.38
2019-04-10T10:41:02.757Z,36.60
2019-04-10T10:43:34.304Z,36.77
2019-04-10T10:46:05.693Z,36.66
2019-04-10T10:48:36.455Z,36.79
2019-04-10T10:51:08.673Z,36.06
2019-04-10T10:53:40.664Z,34.41
2019-04-10T10:56:11.914Z,34.35
2019-04-10T10:58:42.621Z,33.95
2019-04-10T11:01:13.707Z,32.96
2019-04-10T11:03:44.745Z,33.31
2019-04-10T11:06:16.657Z,33.48
2019-04-10T11:08:48.358Z,33.28
2019-04-10T11:11:20.028Z,33.86
2019-04-10T11:13:50.819Z,33.95
2019-04-10T11:16:23.195Z,33.66
2019-04-10T11:18:55.034Z,33.40
2019-04-10T11:21:27.376Z,32.42
2019-04-10T11:23:58.426Z,31.15
2019-04-10T11:26:30.307Z,30.40
2019-04-10T11:29:01.597Z,31.49
2019-04-10T11:31:33.310Z,33.51
2019-04-10T11:34:04.218Z,34.17
2019-04-10T11:36:36.117Z,34.13
2019-04-10T11:39:17.127Z,34.61
2019-04-10T11:41:41.316Z,35.01
2019-04-10T11:44:14.306Z,35.82
2019-04-10T11:46:44.684Z,36.31
2019-04-10T11:49:17.810Z,35.93
2019-04-10T11:51:50.876Z,34.59
2019-04-10T11:54:26.457Z,33.54
2019-04-10T11:56:58.317Z,34.27
2019-04-10T11:59:28.679Z,35.06
2019-04-10T12:02:03.502Z,35.82
2019-04-10T12:04:43.530Z,36.39
2019-04-10T12:07:05.988Z,35.98
2019-04-10T12:12:09.206Z,35.16
2019-04-10T12:14:39.911Z,36.29
2019-04-10T12:17:11.681Z,36.58
2019-04-10T12:19:44.548Z,36.83
2019-04-10T12:22:15.767Z,36.48
2019-04-10T12:24:49.613Z,36.33
2019-04-10T12:27:18.893Z,36.27
2019-04-10T12:29:49.661Z,35.19
2019-04-10T12:32:20.842Z,35.25
2019-04-10T12:34:53.075Z,35.37
2019-04-10T12:37:23.755Z,35.35
2019-04-10T12:39:55.147Z,36.36
2019-04-10T12:42:26.160Z,36.86
2019-04-10T12:44:57.826Z,36.99
2019-04-10T12:47:28.548Z,37.34
2019-04-10T12:50:00.269Z,37.92
2019-04-10T12:52:31.001Z,37.83
2019-04-10T12:55:02.045Z,37.41
2019-04-10T12:57:32.998Z,37.05
2019-04-10T13:00:06.753Z,36.82
2019-04-10T13:02:38.614Z,37.18
2019-04-10T13:05:11.294Z,37.22
2019-04-10T13:07:42.014Z,36.83
2019-04-10T13:10:13.147Z,36.68
2019-04-10T13:12:45.167Z,37.05
2019-04-10T13:15:17.336Z,37.14
2019-04-10T13:17:49.037Z,36.88
2019-04-10T13:20:20.432Z,37.38
2019-04-10T13:22:51.160Z,37.24
2019-04-10T13:25:22.365Z,37.80
2019-04-10T13:27:53.401Z,37.20
2019-04-10T13:30:25.028Z,37.23
2019-04-10T13:32:56.150Z,37.21
2019-04-10T13:35:28.387Z,37.04
2019-04-10T13:37:59.202Z,36.86
2019-04-10T13:40:29.957Z,37.32
2019-04-10T13:43:01.326Z,36.67
2019-04-10T13:45:32.417Z,37.20
2019-04-10T13:48:04.001Z,37.27
2019-04-10T13:50:34.866Z,37.14
2019-04-10T13:53:05.829Z,36.98
2019-04-10T13:55:36.990Z,37.14
2019-04-10T13:58:08.843Z,36.32
2019-04-10T14:00:41.573Z,36.55
2019-04-10T14:03:12.366Z,37.20
2019-04-10T14:05:43.291Z,37.40
2019-04-10T14:08:14.619Z,37.05
2019-04-10T14:10:46.719Z,37.28
2019-04-10T14:13:17.922Z,37.00
2019-04-10T14:15:48.729Z,36.64
2019-04-10T14:18:19.930Z,36.53
2019-04-10T14:20:51.312Z,36.96
2019-04-10T14:23:24.058Z,36.86
2019-04-10T14:26:02.869Z,36.38
2019-04-10T14:28:35.431Z,36.90
2019-04-10T14:31:24.601Z,35.94
2019-04-10T14:33:56.541Z,36.23
2019-04-10T14:36:28.419Z,35.96
2019-04-10T14:39:10.522Z,36.21
2019-04-10T14:41:33.760Z,36.82
2019-04-10T14:44:06.071Z,37.23
2019-04-10T14:46:37.999Z,37.32
2019-04-10T14:49:09.020Z,37.45
2019-04-10T14:51:40.807Z,37.83
2019-04-10T14:54:11.864Z,37.93
2019-04-10T14:56:43.244Z,37.85
2019-04-10T14:59:13.966Z,37.67
2019-04-10T15:01:44.676Z,37.71
2019-04-10T15:04:17.286Z,36.75
2019-04-10T15:06:48.408Z,37.11
2019-04-10T15:09:25.559Z,37.43
2019-04-10T15:11:53.915Z,37.48
2019-04-10T15:14:25.733Z,37.48
2019-04-10T15:17:02.662Z,37.08
2019-04-10T15:19:30.356Z,36.66
2019-04-10T15:22:01.195Z,37.06
2019-04-10T15:24:33.180Z,37.49
2019-04-10T15:27:04.841Z,37.69
2019-04-10T15:29:36.436Z,37.87
2019-04-10T15:32:08.441Z,37.92
2019-04-10T15:34:39.606Z,37.92
2019-04-10T15:37:11.004Z,37.77
2019-04-10T15:39:43.295Z,37.43
2019-04-10T15:42:14.490Z,36.73
2019-04-10T15:44:46.042Z,36.72
2019-04-10T15:47:22.178Z,37.05
2019-04-10T15:49:49.516Z,37.57
2019-04-10T15:52:20.534Z,37.98
2019-04-10T15:54:53.357Z,37.70
2019-04-10T15:57:24.897Z,37.64
2019-04-10T15:59:56.680Z,37.91
2019-04-10T16:02:27.977Z,37.89
2019-04-10T16:05:01.340Z,38.25
2019-04-10T16:07:34.209Z,38.00
2019-04-10T16:10:28.859Z,38.12
2019-04-10T16:13:17.642Z,37.52
2019-04-10T16:15:48.503Z,36.50
2019-04-10T16:18:21.141Z,36.68
2019-04-10T16:20:54.887Z,36.40
2019-04-10T16:23:29.749Z,36.91
2019-04-10T16:26:00.958Z,38.05
2019-04-10T16:28:31.755Z,38.58
2019-04-10T16:31:03.375Z,38.67
2019-04-10T16:33:34.294Z,38.59
2019-04-10T16:36:05.379Z,37.89
2019-04-10T16:38:37.211Z,36.04
2019-04-10T16:41:08.283Z,36.36
2019-04-10T16:43:40.397Z,36.27
2019-04-10T16:46:11.243Z,36.47
2019-04-10T16:48:42.282Z,36.86
2019-04-10T16:51:12.937Z,37.09
2019-04-10T16:53:44.152Z,37.69
2019-04-10T16:56:15.811Z,37.96
2019-04-10T16:58:46.489Z,38.41
2019-04-10T17:01:18.212Z,38.56
2019-04-10T17:03:49.765Z,39.29
2019-04-10T17:06:21.711Z,39.33
2019-04-10T17:08:52.730Z,39.24
2019-04-10T17:11:23.410Z,39.48
2019-04-10T17:13:55.053Z,39.73
2019-04-10T17:16:26.151Z,39.99
2019-04-10T17:18:57.259Z,40.03
2019-04-10T17:21:30.551Z,40.38
2019-04-10T17:24:00.869Z,40.43
2019-04-10T17:26:32.883Z,40.67
2019-04-10T17:29:05.047Z,40.54
2019-04-10T17:31:38.320Z,40.81
2019-04-10T17:34:10.129Z,40.79
2019-04-10T17:36:41.363Z,40.85
2019-04-10T17:39:16.140Z,40.64
2019-04-10T17:41:46.431Z,40.57
2019-04-10T17:44:17.982Z,40.80
2019-04-10T17:46:49.171Z,40.93
2019-04-10T17:49:20.364Z,41.18
2019-04-10T17:51:52.341Z,41.40
2019-04-10T17:54:23.222Z,41.50
2019-04-10T17:56:54.954Z,41.87
2019-04-10T17:59:26.731Z,42.03
2019-04-10T18:01:59.435Z,42.17
2019-04-10T18:04:31.920Z,42.29
2019-04-10T18:07:03.918Z,42.62
2019-04-10T18:09:35.460Z,42.74
2019-04-10T18:12:08.043Z,42.72
2019-04-10T18:14:40.896Z,42.98
2019-04-10T18:17:11.371Z,43.30
2019-04-10T18:19:42.223Z,43.24
2019-04-10T18:22:12.910Z,43.42
2019-04-10T18:24:45.327Z,43.59
2019-04-10T18:27:16.401Z,43.75
2019-04-10T18:29:47.560Z,43.89
2019-04-10T18:32:18.725Z,44.21
2019-04-10T18:34:50.064Z,44.22
2019-04-10T18:37:24.067Z,44.51
2019-04-10T18:39:54.891Z,44.74
2019-04-10T18:42:26.704Z,45.04
2019-04-10T18:44:57.714Z,45.24
2019-04-10T18:47:32.042Z,45.36
2019-04-10T18:50:02.703Z,45.34
2019-04-10T18:52:51.778Z,45.55
2019-04-10T18:55:24.586Z,45.69
2019-04-10T18:57:57.099Z,46.20
2019-04-10T19:00:48.569Z,46.19
2019-04-10T19:03:47.963Z,46.49
2019-04-10T19:06:26.719Z,46.68
2019-04-10T19:09:07.741Z,46.98
2019-04-10T19:11:35.254Z,47.09
2019-04-10T19:14:04.220Z,47.06
2019-04-10T19:16:35.622Z,47.30
2019-04-10T19:19:06.728Z,47.35
2019-04-10T19:21:37.720Z,47.40
2019-04-10T19:24:08.512Z,47.40
2019-04-10T19:26:39.916Z,47.56
2019-04-10T19:29:11.093Z,47.75
2019-04-10T19:31:43.705Z,47.97
2019-04-10T19:34:14.967Z,48.46
2019-04-10T19:36:45.975Z,48.61
2019-04-10T19:39:18.075Z,49.04
2019-04-10T19:41:49.608Z,49.26
2019-04-10T19:44:21.150Z,49.40
2019-04-10T19:46:52.124Z,49.61
2019-04-10T19:49:23.908Z,49.80
2019-04-10T19:51:55.957Z,50.04
2019-04-10T19:54:40.946Z,50.01
2019-04-10T19:57:05.098Z,50.20
2019-04-10T19:59:35.856Z,50.18
2019-04-10T20:02:06.731Z,50.00
2019-04-10T20:04:37.400Z,50.27
2019-04-10T20:07:09.047Z,50.48
2019-04-10T20:09:40.997Z,50.57
2019-04-10T20:12:12.828Z,50.76
2019-04-10T20:14:44.384Z,50.94
2019-04-10T20:17:15.723Z,51.06
2019-04-10T20:19:46.765Z,50.98
2019-04-10T20:22:18.843Z,51.08
2019-04-10T20:24:50.802Z,51.48
2019-04-10T20:27:23.658Z,51.52
2019-04-10T20:29:55.223Z,51.62
2019-04-10T20:32:30.180Z,51.62
2019-04-10T20:35:02.244Z,51.46
2019-04-10T20:37:34.451Z,51.18
2019-04-10T20:40:06.817Z,51.18
2019-04-10T20:42:38.246Z,51.03
2019-04-10T20:45:09.438Z,50.91
2019-04-10T20:47:41.287Z,50.87
2019-04-10T20:50:12.453Z,50.96
2019-04-10T20:52:43.561Z,50.42
2019-04-10T20:55:14.536Z,50.58
2019-04-10T20:57:45.828Z,50.23
2019-04-10T21:00:22.328Z,49.94
2019-04-10T21:02:55.087Z,49.64
2019-04-10T21:05:26.218Z,49.67
2019-04-10T21:07:57.380Z,49.31
2019-04-10T21:10:29.053Z,49.49
2019-04-10T21:13:01.112Z,49.29
2019-04-10T21:15:33.339Z,49.17
2019-04-10T21:18:04.723Z,49.15
2019-04-10T21:20:36.614Z,49.27
2019-04-10T21:23:07.612Z,49.41
2019-04-10T21:25:39.453Z,49.26
2019-04-10T21:28:10.246Z,49.57
2019-04-10T21:30:58.847Z,49.48
2019-04-10T21:33:43.175Z,49.53
2019-04-10T21:36:13.855Z,49.70
2019-04-10T21:38:44.892Z,49.54
2019-04-10T21:41:17.859Z,49.68
2019-04-10T21:43:50.850Z,49.89
2019-04-10T21:46:22.202Z,49.96
2019-04-10T21:48:53.124Z,50.18
2019-04-10T21:51:25.218Z,50.06
2019-04-10T21:53:56.588Z,50.24
2019-04-10T21:56:27.331Z,50.30
2019-04-10T21:58:59.041Z,50.21
2019-04-10T22:01:30.446Z,50.34
2019-04-10T22:04:02.731Z,50.37
2019-04-10T22:06:38.270Z,50.40
2019-04-10T22:09:10.437Z,50.33
2019-04-10T22:11:45.499Z,50.39
2019-04-10T22:14:17.143Z,50.49
2019-04-10T22:16:48.493Z,50.53
2019-04-10T22:19:21.021Z,50.53
2019-04-10T22:21:52.026Z,50.30
2019-04-10T22:24:23.524Z,50.36
2019-04-10T22:26:54.383Z,50.41
2019-04-10T22:29:25.981Z,50.61
2019-04-10T22:31:57.736Z,50.87
2019-04-10T22:34:29.818Z,50.71
2019-04-10T22:37:00.773Z,50.52
2019-04-10T22:39:31.744Z,50.50
2019-04-10T22:42:03.357Z,52.28
2019-04-10T22:44:40.263Z,56.64
2019-04-10T22:47:07.846Z,52.19
2019-04-10T22:49:39.304Z,50.87
2019-04-10T22:52:10.953Z,52.40
2019-04-10T22:54:42.297Z,50.51
2019-04-10T22:57:13.057Z,50.48
2019-04-10T22:59:43.727Z,50.55
2019-04-10T23:02:16.108Z,51.71
2019-04-10T23:04:47.097Z,51.33
2019-04-10T23:07:18.050Z,52.98
2019-04-10T23:09:48.853Z,54.60
2019-04-10T23:12:20.349Z,53.42
2019-04-10T23:14:51.246Z,51.77
2019-04-10T23:17:22.142Z,50.65
2019-04-10T23:19:54.197Z,50.71
2019-04-10T23:22:25.257Z,53.35
2019-04-10T23:24:56.078Z,52.28
2019-04-10T23:27:26.904Z,54.26
2019-04-10T23:29:58.724Z,52.07
2019-04-10T23:32:29.403Z,52.06
2019-04-10T23:35:01.153Z,54.12
2019-04-10T23:37:33.053Z,51.69
2019-04-10T23:40:04.961Z,52.26
2019-04-10T23:42:36.025Z,52.88
2019-04-10T23:45:07.573Z,51.75
2019-04-10T23:47:38.305Z,52.14
2019-04-10T23:50:10.045Z,51.97
2019-04-10T23:52:40.785Z,53.20
2019-04-10T23:55:11.508Z,52.07
2019-04-10T23:57:43.236Z,51.45
